sensor_id;sensor_type;location;lat;lon;timestamp;pressure;altitude;pressure_sealevel;temperature;humidity
7760;BME280;3924;48.830;9.262;2024-01-30T00:01:16;99969.09;;;2.98;79.34
7760;BME280;3924;48.830;9.262;2024-01-30T00:03:43;99959.63;;;2.95;79.47
7760;BME280;3924;48.830;9.262;2024-01-30T00:06:10;99965.38;;;2.92;79.45
7760;BME280;3924;48.830;9.262;2024-01-30T00:08:36;99961.06;;;2.91;79.51
7760;BME280;3924;48.830;9.262;2024-01-30T00:11:03;99965.38;;;2.92;79.72
7760;BME280;3924;48.830;9.262;2024-01-30T00:13:30;99958.38;;;2.91;79.72
7760;BME280;3924;48.830;9.262;2024-01-30T00:15:56;99962.50;;;2.94;79.70
7760;BME280;3924;48.830;9.262;2024-01-30T00:18:23;99956.31;;;2.93;79.51
7760;BME280;3924;48.830;9.262;2024-01-30T00:20:49;99958.38;;;2.91;79.76
7760;BME280;3924;48.830;9.262;2024-01-30T00:23:16;99964.16;;;2.88;79.82
7760;BME280;3924;48.830;9.262;2024-01-30T00:25:42;99963.53;;;2.86;79.65
7760;BME280;3924;48.830;9.262;2024-01-30T00:28:09;99957.97;;;2.81;79.66
7760;BME280;3924;48.830;9.262;2024-01-30T00:30:35;99965.41;;;2.79;80.03
7760;BME280;3924;48.830;9.262;2024-01-30T00:33:02;99959.81;;;2.81;79.94
7760;BME280;3924;48.830;9.262;2024-01-30T00:35:29;99967.47;;;2.84;80.09
7760;BME280;3924;48.830;9.262;2024-01-30T00:37:55;99962.72;;;2.86;80.00
7760;BME280;3924;48.830;9.262;2024-01-30T00:40:22;99959.00;;;2.87;79.72
7760;BME280;3924;48.830;9.262;2024-01-30T00:42:48;99958.81;;;2.88;79.86
7760;BME280;3924;48.830;9.262;2024-01-30T00:45:16;99957.97;;;2.88;79.92
7760;BME280;3924;48.830;9.262;2024-01-30T00:47:43;99962.50;;;2.87;79.76
7760;BME280;3924;48.830;9.262;2024-01-30T00:50:11;99958.19;;;2.86;80.10
7760;BME280;3924;48.830;9.262;2024-01-30T00:52:37;99968.28;;;2.84;79.97
7760;BME280;3924;48.830;9.262;2024-01-30T00:55:05;99969.53;;;2.82;79.88
7760;BME280;3924;48.830;9.262;2024-01-30T00:57:32;99966.44;;;2.78;79.86
7760;BME280;3924;48.830;9.262;2024-01-30T00:59:58;99975.50;;;2.77;80.09
7760;BME280;3924;48.830;9.262;2024-01-30T01:02:25;99971.19;;;2.76;80.27
7760;BME280;3924;48.830;9.262;2024-01-30T01:04:51;99965.00;;;2.76;80.28
7760;BME280;3924;48.830;9.262;2024-01-30T01:07:18;99974.47;;;2.78;80.19
7760;BME280;3924;48.830;9.262;2024-01-30T01:09:44;99978.16;;;2.77;80.10
7760;BME280;3924;48.830;9.262;2024-01-30T01:12:11;99978.56;;;2.74;80.34
7760;BME280;3924;48.830;9.262;2024-01-30T01:14:38;99983.94;;;2.74;80.11
7760;BME280;3924;48.830;9.262;2024-01-30T01:17:04;99978.56;;;2.74;80.30
7760;BME280;3924;48.830;9.262;2024-01-30T01:19:30;99969.53;;;2.75;80.23
7760;BME280;3924;48.830;9.262;2024-01-30T01:21:57;99976.53;;;2.76;80.37
7760;BME280;3924;48.830;9.262;2024-01-30T01:24:24;99967.47;;;2.77;80.25
7760;BME280;3924;48.830;9.262;2024-01-30T01:26:50;99974.88;;;2.75;80.26
7760;BME280;3924;48.830;9.262;2024-01-30T01:29:17;99976.94;;;2.73;80.39
7760;BME280;3924;48.830;9.262;2024-01-30T01:31:44;99970.97;;;2.71;80.39
7760;BME280;3924;48.830;9.262;2024-01-30T01:34:10;99981.06;;;2.69;80.60
7760;BME280;3924;48.830;9.262;2024-01-30T01:36:37;99977.75;;;2.67;80.43
7760;BME280;3924;48.830;9.262;2024-01-30T01:39:04;99972.38;;;2.67;80.39
7760;BME280;3924;48.830;9.262;2024-01-30T01:41:31;99980.25;;;2.62;80.44
7760;BME280;3924;48.830;9.262;2024-01-30T01:43:59;99974.47;;;2.58;80.75
7760;BME280;3924;48.830;9.262;2024-01-30T01:46:30;99975.28;;;2.59;80.69
7760;BME280;3924;48.830;9.262;2024-01-30T01:49:00;99968.28;;;2.58;80.65
7760;BME280;3924;48.830;9.262;2024-01-30T01:51:27;99965.00;;;2.56;80.91
7760;BME280;3924;48.830;9.262;2024-01-30T01:53:55;99970.13;;;2.57;80.81
7760;BME280;3924;48.830;9.262;2024-01-30T01:56:22;99967.88;;;2.61;80.86
7760;BME280;3924;48.830;9.262;2024-01-30T01:58:49;99968.88;;;2.60;80.84
7760;BME280;3924;48.830;9.262;2024-01-30T02:01:18;99969.94;;;2.59;80.84
7760;BME280;3924;48.830;9.262;2024-01-30T02:03:46;99974.47;;;2.58;80.99
7760;BME280;3924;48.830;9.262;2024-01-30T02:06:14;99975.72;;;2.56;80.68
7760;BME280;3924;48.830;9.262;2024-01-30T02:08:41;99975.28;;;2.52;81.08
7760;BME280;3924;48.830;9.262;2024-01-30T02:11:08;99974.88;;;2.49;80.89
7760;BME280;3924;48.830;9.262;2024-01-30T02:13:36;99971.56;;;2.46;81.11
7760;BME280;3924;48.830;9.262;2024-01-30T02:16:03;99975.06;;;2.47;80.98
7760;BME280;3924;48.830;9.262;2024-01-30T02:18:30;99980.63;;;2.45;81.03
7760;BME280;3924;48.830;9.262;2024-01-30T02:20:58;99976.72;;;2.41;81.21
7760;BME280;3924;48.830;9.262;2024-01-30T02:23:28;99974.03;;;2.41;81.16
7760;BME280;3924;48.830;9.262;2024-01-30T02:25:54;99980.44;;;2.40;81.22
7760;BME280;3924;48.830;9.262;2024-01-30T02:28:21;99978.56;;;2.34;81.20
7760;BME280;3924;48.830;9.262;2024-01-30T02:30:47;99975.25;;;2.32;81.37
7760;BME280;3924;48.830;9.262;2024-01-30T02:33:14;99975.66;;;2.29;81.37
7760;BME280;3924;48.830;9.262;2024-01-30T02:35:41;99986.16;;;2.31;81.32
7760;BME280;3924;48.830;9.262;2024-01-30T02:38:08;99984.31;;;2.31;81.28
7760;BME280;3924;48.830;9.262;2024-01-30T02:40:34;99978.56;;;2.28;81.29
7760;BME280;3924;48.830;9.262;2024-01-30T02:43:02;99975.25;;;2.26;81.47
7760;BME280;3924;48.830;9.262;2024-01-30T02:45:29;99975.66;;;2.23;81.41
7760;BME280;3924;48.830;9.262;2024-01-30T02:47:56;99982.63;;;2.17;81.62
7760;BME280;3924;48.830;9.262;2024-01-30T02:50:22;99978.53;;;2.14;81.81
7760;BME280;3924;48.830;9.262;2024-01-30T02:52:49;99975.03;;;2.14;81.79
7760;BME280;3924;48.830;9.262;2024-01-30T02:55:16;99980.56;;;2.12;81.73
7760;BME280;3924;48.830;9.262;2024-01-30T02:57:45;99971.72;;;2.12;81.36
7760;BME280;3924;48.830;9.262;2024-01-30T03:00:12;99965.53;;;2.11;81.69
7760;BME280;3924;48.830;9.262;2024-01-30T03:02:39;99966.19;;;2.13;81.79
7760;BME280;3924;48.830;9.262;2024-01-30T03:05:07;99967.41;;;2.11;81.39
7760;BME280;3924;48.830;9.262;2024-01-30T03:07:34;99970.50;;;2.08;81.98
7760;BME280;3924;48.830;9.262;2024-01-30T03:10:01;99967.00;;;2.07;81.70
7760;BME280;3924;48.830;9.262;2024-01-30T03:12:27;99969.66;;;2.07;81.86
7760;BME280;3924;48.830;9.262;2024-01-30T03:14:54;99972.31;;;2.01;81.82
7760;BME280;3924;48.830;9.262;2024-01-30T03:17:20;99969.84;;;1.99;81.94
7760;BME280;3924;48.830;9.262;2024-01-30T03:19:47;99968.59;;;1.95;81.84
7760;BME280;3924;48.830;9.262;2024-01-30T03:22:13;99973.13;;;1.95;81.99
7760;BME280;3924;48.830;9.262;2024-01-30T03:24:40;99983.22;;;1.92;81.94
7760;BME280;3924;48.830;9.262;2024-01-30T03:27:06;99974.16;;;1.94;82.18
7760;BME280;3924;48.830;9.262;2024-01-30T03:29:33;99971.47;;;1.94;82.05
7760;BME280;3924;48.830;9.262;2024-01-30T03:32:00;99977.84;;;1.92;82.03
7760;BME280;3924;48.830;9.262;2024-01-30T03:34:26;99973.50;;;1.91;82.09
7760;BME280;3924;48.830;9.262;2024-01-30T03:36:53;99979.06;;;1.90;82.18
7760;BME280;3924;48.830;9.262;2024-01-30T03:39:20;99974.75;;;1.89;82.15
7760;BME280;3924;48.830;9.262;2024-01-30T03:41:46;99972.28;;;1.87;82.04
7760;BME280;3924;48.830;9.262;2024-01-30T03:44:13;99974.34;;;1.85;82.24
7760;BME280;3924;48.830;9.262;2024-01-30T03:46:39;99977.00;;;1.85;82.28
7760;BME280;3924;48.830;9.262;2024-01-30T03:49:06;99973.09;;;1.81;82.02
7760;BME280;3924;48.830;9.262;2024-01-30T03:51:33;99975.97;;;1.80;82.31
7760;BME280;3924;48.830;9.262;2024-01-30T03:53:59;99975.13;;;1.79;82.47
7760;BME280;3924;48.830;9.262;2024-01-30T03:56:26;99975.13;;;1.79;82.56
7760;BME280;3924;48.830;9.262;2024-01-30T03:58:52;99975.13;;;1.79;82.38
7760;BME280;3924;48.830;9.262;2024-01-30T04:01:19;99981.47;;;1.78;82.34
7760;BME280;3924;48.830;9.262;2024-01-30T04:03:45;99983.53;;;1.76;82.28
7760;BME280;3924;48.830;9.262;2024-01-30T04:06:12;99984.56;;;1.75;82.36
7760;BME280;3924;48.830;9.262;2024-01-30T04:08:39;99982.72;;;1.76;82.51
7760;BME280;3924;48.830;9.262;2024-01-30T04:11:06;99981.28;;;1.73;82.59
7760;BME280;3924;48.830;9.262;2024-01-30T04:13:33;99982.31;;;1.72;82.34
7760;BME280;3924;48.830;9.262;2024-01-30T04:16:00;99979.00;;;1.70;82.36
7760;BME280;3924;48.830;9.262;2024-01-30T04:18:30;99986.41;;;1.68;82.42
7760;BME280;3924;48.830;9.262;2024-01-30T04:20:57;99979.41;;;1.67;82.28
7760;BME280;3924;48.830;9.262;2024-01-30T04:23:23;99974.06;;;1.67;82.87
7760;BME280;3924;48.830;9.262;2024-01-30T04:25:50;99979.41;;;1.67;82.71
7760;BME280;3924;48.830;9.262;2024-01-30T04:28:16;99976.13;;;1.65;82.59
7760;BME280;3924;48.830;9.262;2024-01-30T04:30:44;99979.78;;;1.64;82.67
7760;BME280;3924;48.830;9.262;2024-01-30T04:33:10;99978.78;;;1.65;82.66
7760;BME280;3924;48.830;9.262;2024-01-30T04:35:37;99971.38;;;1.67;82.42
7760;BME280;3924;48.830;9.262;2024-01-30T04:38:04;99969.53;;;1.68;82.80
7760;BME280;3924;48.830;9.262;2024-01-30T04:40:30;99974.06;;;1.67;82.66
7760;BME280;3924;48.830;9.262;2024-01-30T04:42:57;99967.06;;;1.66;82.86
7760;BME280;3924;48.830;9.262;2024-01-30T04:45:23;99965.44;;;1.65;82.50
7760;BME280;3924;48.830;9.262;2024-01-30T04:47:50;99975.47;;;1.63;82.60
7760;BME280;3924;48.830;9.262;2024-01-30T04:50:17;99975.47;;;1.63;83.01
7760;BME280;3924;48.830;9.262;2024-01-30T04:52:43;99973.81;;;1.62;82.80
7760;BME280;3924;48.830;9.262;2024-01-30T04:55:10;99977.53;;;1.61;82.84
7760;BME280;3924;48.830;9.262;2024-01-30T04:57:36;99976.91;;;1.59;82.89
7760;BME280;3924;48.830;9.262;2024-01-30T05:00:03;99976.25;;;1.57;82.87
7760;BME280;3924;48.830;9.262;2024-01-30T05:02:31;99975.66;;;1.55;82.81
7760;BME280;3924;48.830;9.262;2024-01-30T05:04:58;99973.78;;;1.55;82.94
7760;BME280;3924;48.830;9.262;2024-01-30T05:07:25;99975.66;;;1.55;82.82
7760;BME280;3924;48.830;9.262;2024-01-30T05:09:52;99979.97;;;1.56;82.86
7760;BME280;3924;48.830;9.262;2024-01-30T05:12:21;99984.69;;;1.54;82.78
7760;BME280;3924;48.830;9.262;2024-01-30T05:14:48;99984.06;;;1.52;82.90
7760;BME280;3924;48.830;9.262;2024-01-30T05:17:14;99986.50;;;1.47;82.75
7760;BME280;3924;48.830;9.262;2024-01-30T05:19:42;99989.56;;;1.44;82.97
7760;BME280;3924;48.830;9.262;2024-01-30T05:22:09;99985.22;;;1.43;83.10
7760;BME280;3924;48.830;9.262;2024-01-30T05:24:36;99980.91;;;1.42;83.10
7760;BME280;3924;48.830;9.262;2024-01-30T05:27:03;99984.41;;;1.42;83.08
7760;BME280;3924;48.830;9.262;2024-01-30T05:29:29;99986.88;;;1.44;83.38
7760;BME280;3924;48.830;9.262;2024-01-30T05:32:14;99989.75;;;1.42;82.97
7760;BME280;3924;48.830;9.262;2024-01-30T05:34:40;99995.91;;;1.43;83.27
7760;BME280;3924;48.830;9.262;2024-01-30T05:37:07;99997.56;;;1.44;83.01
7760;BME280;3924;48.830;9.262;2024-01-30T05:39:34;99986.88;;;1.44;82.88
7760;BME280;3924;48.830;9.262;2024-01-30T05:42:00;99997.97;;;1.41;83.09
7760;BME280;3924;48.830;9.262;2024-01-30T05:44:26;99991.00;;;1.40;83.20
7760;BME280;3924;48.830;9.262;2024-01-30T05:46:53;99988.31;;;1.40;83.45
7760;BME280;3924;48.830;9.262;2024-01-30T05:49:20;99991.81;;;1.40;83.14
7760;BME280;3924;48.830;9.262;2024-01-30T05:51:46;99994.28;;;1.42;83.44
7760;BME280;3924;48.830;9.262;2024-01-30T05:54:13;99990.59;;;1.43;83.41
7760;BME280;3924;48.830;9.262;2024-01-30T05:56:43;99997.56;;;1.44;83.05
7760;BME280;3924;48.830;9.262;2024-01-30T05:59:09;99996.38;;;1.46;83.46
7760;BME280;3924;48.830;9.262;2024-01-30T06:01:36;100001.72;;;1.46;83.32
7760;BME280;3924;48.830;9.262;2024-01-30T06:04:03;100001.72;;;1.46;83.37
7760;BME280;3924;48.830;9.262;2024-01-30T06:06:29;100000.25;;;1.44;83.24
7760;BME280;3924;48.830;9.262;2024-01-30T06:08:56;99996.75;;;1.43;83.37
7760;BME280;3924;48.830;9.262;2024-01-30T06:11:23;100000.25;;;1.44;83.19
7760;BME280;3924;48.830;9.262;2024-01-30T06:13:49;100003.56;;;1.46;83.23
7760;BME280;3924;48.830;9.262;2024-01-30T06:16:16;99996.56;;;1.45;83.45
7760;BME280;3924;48.830;9.262;2024-01-30T06:18:42;100002.09;;;1.43;83.26
7760;BME280;3924;48.830;9.262;2024-01-30T06:21:09;99992.63;;;1.41;83.63
7760;BME280;3924;48.830;9.262;2024-01-30T06:23:38;99995.31;;;1.41;83.54
7760;BME280;3924;48.830;9.262;2024-01-30T06:26:06;99996.34;;;1.40;83.38
7760;BME280;3924;48.830;9.262;2024-01-30T06:28:33;99995.31;;;1.41;83.33
7760;BME280;3924;48.830;9.262;2024-01-30T06:31:01;99993.25;;;1.43;83.62
7760;BME280;3924;48.830;9.262;2024-01-30T06:33:27;100001.25;;;1.43;83.62
7760;BME280;3924;48.830;9.262;2024-01-30T06:35:54;99997.16;;;1.40;83.20
7760;BME280;3924;48.830;9.262;2024-01-30T06:38:21;100006.19;;;1.39;83.43
7760;BME280;3924;48.830;9.262;2024-01-30T06:40:47;100009.91;;;1.38;83.53
7760;BME280;3924;48.830;9.262;2024-01-30T06:43:13;100005.38;;;1.39;83.59
7760;BME280;3924;48.830;9.262;2024-01-30T06:45:40;100005.38;;;1.39;83.52
7760;BME280;3924;48.830;9.262;2024-01-30T06:48:07;99995.06;;;1.35;83.82
7760;BME280;3924;48.830;9.262;2024-01-30T06:50:34;100003.28;;;1.34;83.54
7760;BME280;3924;48.830;9.262;2024-01-30T06:53:00;100000.41;;;1.35;83.53
7760;BME280;3924;48.830;9.262;2024-01-30T06:55:27;99996.91;;;1.35;83.81
7760;BME280;3924;48.830;9.262;2024-01-30T06:57:54;100003.06;;;1.35;84.01
7760;BME280;3924;48.830;9.262;2024-01-30T07:00:20;99998.75;;;1.34;83.73
7760;BME280;3924;48.830;9.262;2024-01-30T07:02:47;100005.94;;;1.34;83.36
7760;BME280;3924;48.830;9.262;2024-01-30T07:05:14;100007.22;;;1.38;83.99
7760;BME280;3924;48.830;9.262;2024-01-30T07:07:41;100007.63;;;1.42;83.70
7760;BME280;3924;48.830;9.262;2024-01-30T07:10:08;100006.59;;;1.43;83.65
7760;BME280;3924;48.830;9.262;2024-01-30T07:12:35;100018.31;;;1.42;83.68
7760;BME280;3924;48.830;9.262;2024-01-30T07:15:01;100017.94;;;1.45;83.87
7760;BME280;3924;48.830;9.262;2024-01-30T07:17:29;100011.56;;;1.46;83.49
7760;BME280;3924;48.830;9.262;2024-01-30T07:19:55;100018.56;;;1.47;83.67
7760;BME280;3924;48.830;9.262;2024-01-30T07:22:22;100025.34;;;1.49;83.63
7760;BME280;3924;48.830;9.262;2024-01-30T07:24:48;100023.13;;;1.53;83.82
7760;BME280;3924;48.830;9.262;2024-01-30T07:27:16;100018.41;;;1.55;83.69
7760;BME280;3924;48.830;9.262;2024-01-30T07:29:44;100030.34;;;1.59;83.61
7760;BME280;3924;48.830;9.262;2024-01-30T07:32:10;100028.31;;;1.61;83.59
7760;BME280;3924;48.830;9.262;2024-01-30T07:34:37;100031.22;;;1.66;83.77
7760;BME280;3924;48.830;9.262;2024-01-30T07:37:18;100026.50;;;1.68;83.55
7760;BME280;3924;48.830;9.262;2024-01-30T07:39:47;100026.50;;;1.68;83.42
7760;BME280;3924;48.830;9.262;2024-01-30T07:42:13;100018.91;;;1.72;83.63
7760;BME280;3924;48.830;9.262;2024-01-30T07:44:40;100022.81;;;1.76;83.59
7760;BME280;3924;48.830;9.262;2024-01-30T07:47:07;100018.72;;;1.80;83.61
7760;BME280;3924;48.830;9.262;2024-01-30T07:49:34;100027.81;;;1.85;83.44
7760;BME280;3924;48.830;9.262;2024-01-30T07:52:00;100022.88;;;1.89;83.48
7760;BME280;3924;48.830;9.262;2024-01-30T07:54:27;100023.31;;;1.92;83.47
7760;BME280;3924;48.830;9.262;2024-01-30T07:56:53;100018.38;;;1.96;83.28
7760;BME280;3924;48.830;9.262;2024-01-30T07:59:20;100027.66;;;2.00;83.43
7760;BME280;3924;48.830;9.262;2024-01-30T08:01:51;100029.91;;;2.03;83.22
7760;BME280;3924;48.830;9.262;2024-01-30T08:04:17;100030.75;;;2.10;83.22
7760;BME280;3924;48.830;9.262;2024-01-30T08:06:44;100028.31;;;2.15;83.24
7760;BME280;3924;48.830;9.262;2024-01-30T08:09:10;100027.91;;;2.18;83.13
7760;BME280;3924;48.830;9.262;2024-01-30T08:11:37;100020.94;;;2.24;83.14
7760;BME280;3924;48.830;9.262;2024-01-30T08:14:04;100027.94;;;2.32;83.05
7760;BME280;3924;48.830;9.262;2024-01-30T08:16:30;100021.78;;;2.38;82.91
7760;BME280;3924;48.830;9.262;2024-01-30T08:18:57;100032.09;;;2.47;82.87
7760;BME280;3924;48.830;9.262;2024-01-30T08:21:24;100026.56;;;2.56;82.94
7760;BME280;3924;48.830;9.262;2024-01-30T08:23:51;100029.03;;;2.64;82.74
7760;BME280;3924;48.830;9.262;2024-01-30T08:26:17;100025.13;;;2.73;82.45
7760;BME280;3924;48.830;9.262;2024-01-30T08:28:43;100031.72;;;2.84;82.63
7760;BME280;3924;48.830;9.262;2024-01-30T08:31:10;100026.78;;;2.94;82.70
7760;BME280;3924;48.830;9.262;2024-01-30T08:33:38;100029.66;;;3.06;82.37
7760;BME280;3924;48.830;9.262;2024-01-30T08:36:07;100025.31;;;3.18;82.33
7760;BME280;3924;48.830;9.262;2024-01-30T08:38:34;100020.56;;;3.26;81.93
7760;BME280;3924;48.830;9.262;2024-01-30T08:41:00;100018.31;;;3.30;81.75
7760;BME280;3924;48.830;9.262;2024-01-30T08:43:27;100021.38;;;3.34;82.01
7760;BME280;3924;48.830;9.262;2024-01-30T08:45:54;100019.94;;;3.44;81.83
7760;BME280;3924;48.830;9.262;2024-01-30T08:48:20;100026.09;;;3.58;81.70
7760;BME280;3924;48.830;9.262;2024-01-30T08:50:49;100031.59;;;3.70;81.38
7760;BME280;3924;48.830;9.262;2024-01-30T08:53:15;100030.75;;;3.76;81.34
7760;BME280;3924;48.830;9.262;2024-01-30T08:55:42;100018.56;;;3.80;81.38
7760;BME280;3924;48.830;9.262;2024-01-30T08:58:09;100026.38;;;3.88;81.34
7760;BME280;3924;48.830;9.262;2024-01-30T09:00:35;100020.16;;;3.94;81.19
7760;BME280;3924;48.830;9.262;2024-01-30T09:03:03;100018.91;;;3.97;81.25
7760;BME280;3924;48.830;9.262;2024-01-30T09:05:29;100030.06;;;4.00;80.90
7760;BME280;3924;48.830;9.262;2024-01-30T09:07:56;100030.66;;;4.02;80.88
7760;BME280;3924;48.830;9.262;2024-01-30T09:10:22;100030.25;;;4.05;81.15
7760;BME280;3924;48.830;9.262;2024-01-30T09:12:49;100034.13;;;4.09;80.95
7760;BME280;3924;48.830;9.262;2024-01-30T09:15:16;100030.59;;;4.16;81.12
7760;BME280;3924;48.830;9.262;2024-01-30T09:17:43;100036.75;;;4.23;80.70
7760;BME280;3924;48.830;9.262;2024-01-30T09:20:10;100037.53;;;4.30;80.48
7760;BME280;3924;48.830;9.262;2024-01-30T09:22:37;100046.97;;;4.39;80.54
7760;BME280;3924;48.830;9.262;2024-01-30T09:25:04;100046.13;;;4.45;80.41
7760;BME280;3924;48.830;9.262;2024-01-30T09:27:31;100035.34;;;4.52;80.23
7760;BME280;3924;48.830;9.262;2024-01-30T09:29:58;100034.47;;;4.58;79.93
7760;BME280;3924;48.830;9.262;2024-01-30T09:32:24;100038.16;;;4.63;80.21
7760;BME280;3924;48.830;9.262;2024-01-30T09:34:51;100033.56;;;4.71;80.12
7760;BME280;3924;48.830;9.262;2024-01-30T09:37:17;100040.31;;;4.80;79.80
7760;BME280;3924;48.830;9.262;2024-01-30T09:39:44;100040.88;;;4.88;79.83
7760;BME280;3924;48.830;9.262;2024-01-30T09:42:27;100042.25;;;4.98;79.64
7760;BME280;3924;48.830;9.262;2024-01-30T09:44:55;100042.97;;;5.11;79.17
7760;BME280;3924;48.830;9.262;2024-01-30T09:47:22;100042.84;;;5.25;79.69
7760;BME280;3924;48.830;9.262;2024-01-30T09:49:48;100044.38;;;5.39;78.80
7760;BME280;3924;48.830;9.262;2024-01-30T09:52:16;100037.81;;;5.53;78.83
7760;BME280;3924;48.830;9.262;2024-01-30T09:54:43;100042.47;;;5.64;78.75
7760;BME280;3924;48.830;9.262;2024-01-30T09:57:11;100041.56;;;5.70;78.45
7760;BME280;3924;48.830;9.262;2024-01-30T09:59:38;100039.00;;;5.75;78.34
7760;BME280;3924;48.830;9.262;2024-01-30T10:02:04;100038.72;;;5.84;78.45
7760;BME280;3924;48.830;9.262;2024-01-30T10:04:31;100042.38;;;5.89;77.72
7760;BME280;3924;48.830;9.262;2024-01-30T10:07:01;100039.44;;;5.97;77.84
7760;BME280;3924;48.830;9.262;2024-01-30T10:09:28;100041.34;;;6.09;77.68
7760;BME280;3924;48.830;9.262;2024-01-30T10:11:58;100043.28;;;6.20;77.26
7760;BME280;3924;48.830;9.262;2024-01-30T10:14:25;100041.91;;;6.29;77.80
7760;BME280;3924;48.830;9.262;2024-01-30T10:16:52;100039.84;;;6.43;77.01
7760;BME280;3924;48.830;9.262;2024-01-30T10:19:19;100040.13;;;6.53;76.92
7760;BME280;3924;48.830;9.262;2024-01-30T10:21:46;100036.88;;;6.63;76.60
7760;BME280;3924;48.830;9.262;2024-01-30T10:24:12;100036.78;;;6.69;76.54
7760;BME280;3924;48.830;9.262;2024-01-30T10:26:40;100029.19;;;6.78;76.79
7760;BME280;3924;48.830;9.262;2024-01-30T10:29:06;100036.09;;;6.85;76.56
7760;BME280;3924;48.830;9.262;2024-01-30T10:31:33;100031.91;;;6.90;76.68
7760;BME280;3924;48.830;9.262;2024-01-30T10:34:00;100031.44;;;6.93;76.44
7760;BME280;3924;48.830;9.262;2024-01-30T10:36:43;100028.28;;;6.96;75.81
7760;BME280;3924;48.830;9.262;2024-01-30T10:39:14;100028.41;;;7.01;76.10
7760;BME280;3924;48.830;9.262;2024-01-30T10:41:44;100024.19;;;7.05;76.25
7760;BME280;3924;48.830;9.262;2024-01-30T10:44:11;100018.09;;;7.09;76.22
7760;BME280;3924;48.830;9.262;2024-01-30T10:46:38;100019.88;;;7.16;75.94
7760;BME280;3924;48.830;9.262;2024-01-30T10:49:06;100019.75;;;7.22;75.96
7760;BME280;3924;48.830;9.262;2024-01-30T10:51:34;100013.44;;;7.28;75.48
7760;BME280;3924;48.830;9.262;2024-01-30T10:54:03;100007.09;;;7.34;74.98
7760;BME280;3924;48.830;9.262;2024-01-30T10:56:32;100005.53;;;7.38;75.09
7760;BME280;3924;48.830;9.262;2024-01-30T10:58:59;100007.88;;;7.47;75.27
7760;BME280;3924;48.830;9.262;2024-01-30T11:01:27;100001.78;;;7.51;75.31
7760;BME280;3924;48.830;9.262;2024-01-30T11:03:55;100005.88;;;7.54;75.06
7760;BME280;3924;48.830;9.262;2024-01-30T11:06:25;100003.28;;;7.59;74.55
7760;BME280;3924;48.830;9.262;2024-01-30T11:09:02;100003.16;;;7.65;75.19
7760;BME280;3924;48.830;9.262;2024-01-30T11:11:56;99998.47;;;7.73;73.80
7760;BME280;3924;48.830;9.262;2024-01-30T11:14:30;100001.84;;;7.80;74.56
7760;BME280;3924;48.830;9.262;2024-01-30T11:16:58;100002.78;;;7.85;74.27
7760;BME280;3924;48.830;9.262;2024-01-30T11:19:26;99995.59;;;7.91;73.97
7760;BME280;3924;48.830;9.262;2024-01-30T11:21:54;100004.63;;;7.97;74.01
7760;BME280;3924;48.830;9.262;2024-01-30T11:24:21;99996.16;;;8.05;74.29
7760;BME280;3924;48.830;9.262;2024-01-30T11:26:57;99998.97;;;8.10;73.95
7760;BME280;3924;48.830;9.262;2024-01-30T11:29:25;99999.28;;;8.13;73.92
7760;BME280;3924;48.830;9.262;2024-01-30T11:31:57;99994.22;;;8.17;74.00
7760;BME280;3924;48.830;9.262;2024-01-30T11:34:25;99991.03;;;8.20;73.86
7760;BME280;3924;48.830;9.262;2024-01-30T11:36:55;99991.59;;;8.22;73.32
7760;BME280;3924;48.830;9.262;2024-01-30T11:39:25;99984.81;;;8.19;73.89
7760;BME280;3924;48.830;9.262;2024-01-30T11:41:53;99988.34;;;8.20;73.13
7760;BME280;3924;48.830;9.262;2024-01-30T11:44:20;99973.75;;;8.21;73.82
7760;BME280;3924;48.830;9.262;2024-01-30T11:46:51;99983.50;;;8.22;73.41
7760;BME280;3924;48.830;9.262;2024-01-30T11:49:18;99993.25;;;8.23;73.13
7760;BME280;3924;48.830;9.262;2024-01-30T11:51:45;99977.63;;;8.25;73.38
7760;BME280;3924;48.830;9.262;2024-01-30T11:54:12;99978.19;;;8.27;73.38
7760;BME280;3924;48.830;9.262;2024-01-30T11:56:40;99976.06;;;8.29;73.97
7760;BME280;3924;48.830;9.262;2024-01-30T11:59:06;99978.19;;;8.27;73.62
7760;BME280;3924;48.830;9.262;2024-01-30T12:01:33;99974.44;;;8.28;73.31
7760;BME280;3924;48.830;9.262;2024-01-30T12:03:59;99977.69;;;8.30;72.91
7760;BME280;3924;48.830;9.262;2024-01-30T12:06:27;99972.91;;;8.32;73.75
7760;BME280;3924;48.830;9.262;2024-01-30T12:09:02;99963.25;;;8.36;73.23
7760;BME280;3924;48.830;9.262;2024-01-30T12:11:32;99961.16;;;8.38;73.29
7760;BME280;3924;48.830;9.262;2024-01-30T12:13:59;99959.28;;;8.39;73.32
7760;BME280;3924;48.830;9.262;2024-01-30T12:16:26;99960.09;;;8.39;72.74
7760;BME280;3924;48.830;9.262;2024-01-30T12:19:00;99957.13;;;8.41;73.87
7760;BME280;3924;48.830;9.262;2024-01-30T12:21:28;99955.81;;;8.43;73.13
7760;BME280;3924;48.830;9.262;2024-01-30T12:23:59;99954.53;;;8.46;73.68
7760;BME280;3924;48.830;9.262;2024-01-30T12:26:26;99947.34;;;8.52;73.05
7760;BME280;3924;48.830;9.262;2024-01-30T12:28:56;99943.63;;;8.58;72.58
7760;BME280;3924;48.830;9.262;2024-01-30T12:31:28;99949.13;;;8.63;73.38
7760;BME280;3924;48.830;9.262;2024-01-30T12:33:55;99941.34;;;8.66;73.05
7760;BME280;3924;48.830;9.262;2024-01-30T12:36:25;99937.91;;;8.71;73.43
7760;BME280;3924;48.830;9.262;2024-01-30T12:38:51;99933.66;;;8.75;73.37
7760;BME280;3924;48.830;9.262;2024-01-30T12:41:19;99934.00;;;8.79;72.63
7760;BME280;3924;48.830;9.262;2024-01-30T12:43:46;99938.06;;;8.81;73.03
7760;BME280;3924;48.830;9.262;2024-01-30T12:46:16;99939.19;;;8.85;72.83
7760;BME280;3924;48.830;9.262;2024-01-30T12:48:43;99944.13;;;8.88;72.57
7760;BME280;3924;48.830;9.262;2024-01-30T12:51:10;99946.31;;;8.91;72.67
7760;BME280;3924;48.830;9.262;2024-01-30T12:53:36;99939.94;;;8.97;72.20
7760;BME280;3924;48.830;9.262;2024-01-30T12:56:03;99942.22;;;9.05;72.50
7760;BME280;3924;48.830;9.262;2024-01-30T12:58:30;99943.44;;;9.15;72.50
7760;BME280;3924;48.830;9.262;2024-01-30T13:00:56;99946.78;;;9.22;71.82
7760;BME280;3924;48.830;9.262;2024-01-30T13:03:24;99944.91;;;9.22;72.12
7760;BME280;3924;48.830;9.262;2024-01-30T13:05:51;99944.09;;;9.22;71.98
7760;BME280;3924;48.830;9.262;2024-01-30T13:08:17;99944.41;;;9.25;71.87
7760;BME280;3924;48.830;9.262;2024-01-30T13:10:44;99945.81;;;9.28;71.27
7760;BME280;3924;48.830;9.262;2024-01-30T13:13:14;99942.50;;;9.26;71.59
7760;BME280;3924;48.830;9.262;2024-01-30T13:15:46;99945.47;;;9.24;72.20
7760;BME280;3924;48.830;9.262;2024-01-30T13:18:12;99944.66;;;9.24;72.40
7760;BME280;3924;48.830;9.262;2024-01-30T13:20:39;99946.09;;;9.31;71.56
7760;BME280;3924;48.830;9.262;2024-01-30T13:23:06;99940.78;;;9.58;71.07
7760;BME280;3924;48.830;9.262;2024-01-30T13:25:32;99943.91;;;9.94;70.55
7760;BME280;3924;48.830;9.262;2024-01-30T13:27:59;99945.97;;;10.31;69.62
7760;BME280;3924;48.830;9.262;2024-01-30T13:30:26;99939.53;;;10.42;69.71